sensor_id;sensor_type;location;lat;lon;timestamp;pressure;altitude;pressure_sealevel;temperature;humidity
57606;BME280;43430;48.204;11.556;2023-05-15T00:00:45;95647.41;;;9.16;100.00
57606;BME280;43430;48.204;11.556;2023-05-15T00:03:11;95646.72;;;9.20;100.00
57606;BME280;43430;48.204;11.556;2023-05-15T00:05:36;95648.69;;;9.25;100.00
57606;BME280;43430;48.204;11.556;2023-05-15T00:08:02;95642.72;;;9.18;100.00
57606;BME280;43430;48.204;11.556;2023-05-15T00:10:27;95651.03;;;9.15;100.00
57606;BME280;43430;48.204;11.556;2023-05-15T00:12:53;95644.78;;;9.16;100.00
57606;BME280;43430;48.204;11.556;2023-05-15T00:15:19;95642.06;;;9.22;100.00
57606;BME280;43430;48.204;11.556;2023-05-15T00:17:44;95652.34;;;9.24;100.00
57606;BME280;43430;48.204;11.556;2023-05-15T00:20:10;95638.03;;;9.20;100.00
57606;BME280;43430;48.204;11.556;2023-05-15T00:22:35;95647.53;;;9.21;100.00
57606;BME280;43430;48.204;11.556;2023-05-15T00:25:01;95639.63;;;9.21;100.00
57606;BME280;43430;48.204;11.556;2023-05-15T00:27:27;95644.41;;;9.12;100.00
57606;BME280;43430;48.204;11.556;2023-05-15T00:29:52;95638.91;;;9.14;100.00
57606;BME280;43430;48.204;11.556;2023-05-15T00:32:17;95632.63;;;9.15;100.00
57606;BME280;43430;48.204;11.556;2023-05-15T00:34:43;95635.53;;;9.25;100.00
57606;BME280;43430;48.204;11.556;2023-05-15T00:37:08;95634.97;;;9.23;100.00
57606;BME280;43430;48.204;11.556;2023-05-15T00:39:34;95628.75;;;9.17;100.00
57606;BME280;43430;48.204;11.556;2023-05-15T00:42:02;95618.47;;;9.16;100.00
57606;BME280;43430;48.204;11.556;2023-05-15T00:44:29;95620.75;;;9.12;100.00
57606;BME280;43430;48.204;11.556;2023-05-15T00:46:56;95624.00;;;9.08;100.00
57606;BME280;43430;48.204;11.556;2023-05-15T00:49:22;95615.63;;;8.99;100.00
57606;BME280;43430;48.204;11.556;2023-05-15T00:51:48;95613.66;;;8.94;100.00
57606;BME280;43430;48.204;11.556;2023-05-15T00:54:14;95615.84;;;8.97;100.00
57606;BME280;43430;48.204;11.556;2023-05-15T00:56:42;95610.94;;;9.01;100.00
57606;BME280;43430;48.204;11.556;2023-05-15T00:59:09;95626.06;;;9.06;100.00
57606;BME280;43430;48.204;11.556;2023-05-15T01:01:35;95626.06;;;9.06;100.00
57606;BME280;43430;48.204;11.556;2023-05-15T01:04:01;95625.19;;;8.93;100.00
57606;BME280;43430;48.204;11.556;2023-05-15T01:06:28;95622.06;;;9.03;100.00
57606;BME280;43430;48.204;11.556;2023-05-15T01:08:56;95624.88;;;9.01;100.00
57606;BME280;43430;48.204;11.556;2023-05-15T01:11:24;95616.56;;;9.04;100.00
57606;BME280;43430;48.204;11.556;2023-05-15T01:13:51;95616.03;;;9.14;100.00
57606;BME280;43430;48.204;11.556;2023-05-15T01:16:16;95615.97;;;9.21;100.00
57606;BME280;43430;48.204;11.556;2023-05-15T01:18:42;95614.38;;;9.20;100.00
57606;BME280;43430;48.204;11.556;2023-05-15T01:23:56;95623.13;;;9.14;100.00
57606;BME280;43430;48.204;11.556;2023-05-15T01:29:43;95615.53;;;9.24;100.00
57606;BME280;43430;48.204;11.556;2023-05-15T01:32:18;95607.94;;;9.16;100.00
57606;BME280;43430;48.204;11.556;2023-05-15T01:34:54;95607.44;;;9.07;100.00
57606;BME280;43430;48.204;11.556;2023-05-15T01:37:24;95614.53;;;9.07;100.00
57606;BME280;43430;48.204;11.556;2023-05-15T01:39:56;95602.34;;;9.12;100.00
57606;BME280;43430;48.204;11.556;2023-05-15T01:42:28;95611.22;;;9.11;100.00
57606;BME280;43430;48.204;11.556;2023-05-15T01:44:55;95605.25;;;9.04;100.00
57606;BME280;43430;48.204;11.556;2023-05-15T01:47:27;95604.88;;;9.00;100.00
57606;BME280;43430;48.204;11.556;2023-05-15T01:49:55;95607.88;;;9.04;100.00
57606;BME280;43430;48.204;11.556;2023-05-15T01:52:31;95599.78;;;9.06;100.00
57606;BME280;43430;48.204;11.556;2023-05-15T01:55:00;95608.25;;;8.89;100.00
57606;BME280;43430;48.204;11.556;2023-05-15T01:57:27;95600.13;;;8.91;100.00
57606;BME280;43430;48.204;11.556;2023-05-15T01:59:54;95598.09;;;8.93;100.00
57606;BME280;43430;48.204;11.556;2023-05-15T02:02:19;95599.34;;;8.90;100.00
57606;BME280;43430;48.204;11.556;2023-05-15T02:04:46;95602.03;;;8.84;100.00
57606;BME280;43430;48.204;11.556;2023-05-15T02:07:12;95603.44;;;8.86;100.00
57606;BME280;43430;48.204;11.556;2023-05-15T02:09:39;95606.72;;;8.82;100.00
57606;BME280;43430;48.204;11.556;2023-05-15T02:12:05;95601.69;;;8.80;100.00
57606;BME280;43430;48.204;11.556;2023-05-15T02:14:31;95605.19;;;8.74;100.00
57606;BME280;43430;48.204;11.556;2023-05-15T02:16:57;95597.00;;;8.82;100.00
57606;BME280;43430;48.204;11.556;2023-05-15T02:19:23;95601.13;;;8.78;100.00
57606;BME280;43430;48.204;11.556;2023-05-15T02:21:48;95598.53;;;8.90;100.00
57606;BME280;43430;48.204;11.556;2023-05-15T02:24:14;95595.13;;;8.89;100.00
57606;BME280;43430;48.204;11.556;2023-05-15T02:30:02;95599.69;;;8.94;100.00
57606;BME280;43430;48.204;11.556;2023-05-15T02:32:26;95605.47;;;9.02;100.00
57606;BME280;43430;48.204;11.556;2023-05-15T02:37:44;95604.00;;;9.07;100.00
57606;BME280;43430;48.204;11.556;2023-05-15T02:40:12;95614.53;;;9.07;100.00
57606;BME280;43430;48.204;11.556;2023-05-15T02:42:39;95605.41;;;9.09;100.00
57606;BME280;43430;48.204;11.556;2023-05-15T02:45:06;95599.19;;;9.03;100.00
57606;BME280;43430;48.204;11.556;2023-05-15T02:47:32;95598.97;;;9.05;100.00
57606;BME280;43430;48.204;11.556;2023-05-15T02:49:59;95601.53;;;8.93;100.00
57606;BME280;43430;48.204;11.556;2023-05-15T02:52:25;95602.19;;;8.89;100.00
57606;BME280;43430;48.204;11.556;2023-05-15T02:54:50;95598.34;;;8.91;100.00
57606;BME280;43430;48.204;11.556;2023-05-15T02:57:16;95600.66;;;8.99;100.00
57606;BME280;43430;48.204;11.556;2023-05-15T02:59:42;95601.22;;;9.01;100.00
57606;BME280;43430;48.204;11.556;2023-05-15T03:02:07;95601.03;;;9.03;100.00
57606;BME280;43430;48.204;11.556;2023-05-15T03:04:32;95596.56;;;9.03;100.00
57606;BME280;43430;48.204;11.556;2023-05-15T03:06:58;95600.41;;;9.01;100.00
57606;BME280;43430;48.204;11.556;2023-05-15T03:09:23;95601.91;;;8.97;100.00
57606;BME280;43430;48.204;11.556;2023-05-15T03:11:49;95596.34;;;9.05;100.00
57606;BME280;43430;48.204;11.556;2023-05-15T03:14:15;95598.59;;;9.01;100.00
57606;BME280;43430;48.204;11.556;2023-05-15T03:16:40;95594.81;;;8.97;100.00
57606;BME280;43430;48.204;11.556;2023-05-15T03:19:06;95590.69;;;9.01;100.00
57606;BME280;43430;48.204;11.556;2023-05-15T03:21:31;95595.69;;;9.10;100.00
57606;BME280;43430;48.204;11.556;2023-05-15T03:23:56;95600.94;;;9.10;100.00
57606;BME280;43430;48.204;11.556;2023-05-15T03:26:22;95593.50;;;9.07;100.00
57606;BME280;43430;48.204;11.556;2023-05-15T03:28:47;95594.00;;;8.97;100.00
57606;BME280;43430;48.204;11.556;2023-05-15T03:31:12;95594.38;;;9.00;100.00
57606;BME280;43430;48.204;11.556;2023-05-15T03:33:38;95588.59;;;9.10;100.00
57606;BME280;43430;48.204;11.556;2023-05-15T03:36:04;95589.31;;;9.17;100.00
57606;BME280;43430;48.204;11.556;2023-05-15T03:38:30;95588.28;;;9.18;100.00
57606;BME280;43430;48.204;11.556;2023-05-15T03:40:55;95587.78;;;9.10;100.00
57606;BME280;43430;48.204;11.556;2023-05-15T03:43:21;95593.13;;;9.03;100.00
57606;BME280;43430;48.204;11.556;2023-05-15T03:45:46;95590.69;;;9.01;100.00
57606;BME280;43430;48.204;11.556;2023-05-15T03:48:11;95586.34;;;8.95;100.00
57606;BME280;43430;48.204;11.556;2023-05-15T03:50:37;95596.28;;;8.93;100.00
57606;BME280;43430;48.204;11.556;2023-05-15T03:53:03;95588.75;;;8.97;100.00
57606;BME280;43430;48.204;11.556;2023-05-15T03:55:29;95595.03;;;8.96;100.00
57606;BME280;43430;48.204;11.556;2023-05-15T03:57:54;95596.88;;;8.95;100.00
57606;BME280;43430;48.204;11.556;2023-05-15T04:00:20;95594.25;;;8.95;100.00
57606;BME280;43430;48.204;11.556;2023-05-15T04:02:46;95598.03;;;8.99;100.00
57606;BME280;43430;48.204;11.556;2023-05-15T04:05:11;95595.53;;;9.04;100.00
57606;BME280;43430;48.204;11.556;2023-05-15T04:07:37;95603.84;;;9.01;100.00
57606;BME280;43430;48.204;11.556;2023-05-15T04:10:02;95592.69;;;9.06;100.00
57606;BME280;43430;48.204;11.556;2023-05-15T04:12:32;95596.88;;;8.95;100.00
57606;BME280;43430;48.204;11.556;2023-05-15T04:15:12;95602.50;;;8.99;100.00
57606;BME280;43430;48.204;11.556;2023-05-15T04:17:37;95604.81;;;9.07;100.00
57606;BME280;43430;48.204;11.556;2023-05-15T04:20:03;95608.38;;;9.13;100.00
57606;BME280;43430;48.204;11.556;2023-05-15T04:22:30;95609.78;;;9.15;100.00
57606;BME280;43430;48.204;11.556;2023-05-15T04:24:55;95612.66;;;9.25;100.00
57606;BME280;43430;48.204;11.556;2023-05-15T04:27:20;95605.44;;;9.21;100.00
57606;BME280;43430;48.204;11.556;2023-05-15T04:29:46;95616.41;;;9.18;100.00
57606;BME280;43430;48.204;11.556;2023-05-15T04:32:12;95615.56;;;9.06;100.00
57606;BME280;43430;48.204;11.556;2023-05-15T04:34:37;95615.69;;;9.11;100.00
57606;BME280;43430;48.204;11.556;2023-05-15T04:37:03;95613.34;;;9.21;100.00
57606;BME280;43430;48.204;11.556;2023-05-15T04:39:29;95610.72;;;9.21;100.00
57606;BME280;43430;48.204;11.556;2023-05-15T04:41:54;95616.03;;;9.14;100.00
57606;BME280;43430;48.204;11.556;2023-05-15T04:44:19;95613.41;;;9.14;100.00
57606;BME280;43430;48.204;11.556;2023-05-15T04:46:45;95617.56;;;9.22;100.00
57606;BME280;43430;48.204;11.556;2023-05-15T04:49:10;95621.03;;;9.22;100.00
57606;BME280;43430;48.204;11.556;2023-05-15T04:51:36;95620.19;;;9.22;100.00
57606;BME280;43430;48.204;11.556;2023-05-15T04:54:01;95627.56;;;9.32;100.00
57606;BME280;43430;48.204;11.556;2023-05-15T04:56:27;95614.78;;;9.35;100.00
57606;BME280;43430;48.204;11.556;2023-05-15T04:58:52;95619.38;;;9.40;100.00
57606;BME280;43430;48.204;11.556;2023-05-15T05:01:18;95620.97;;;9.41;100.00
57606;BME280;43430;48.204;11.556;2023-05-15T05:03:43;95623.63;;;9.41;100.00
57606;BME280;43430;48.204;11.556;2023-05-15T05:06:08;95624.84;;;9.38;100.00
57606;BME280;43430;48.204;11.556;2023-05-15T05:08:34;95632.31;;;9.41;100.00
57606;BME280;43430;48.204;11.556;2023-05-15T05:10:59;95630.78;;;9.34;100.00
57606;BME280;43430;48.204;11.556;2023-05-15T05:13:25;95634.81;;;9.36;100.00
57606;BME280;43430;48.204;11.556;2023-05-15T05:15:50;95636.53;;;9.42;100.00
57606;BME280;43430;48.204;11.556;2023-05-15T05:18:16;95631.41;;;9.47;100.00
57606;BME280;43430;48.204;11.556;2023-05-15T05:20:41;95639.16;;;9.42;100.00
57606;BME280;43430;48.204;11.556;2023-05-15T05:23:06;95643.19;;;9.45;100.00
57606;BME280;43430;48.204;11.556;2023-05-15T05:25:32;95639.41;;;9.41;100.00
57606;BME280;43430;48.204;11.556;2023-05-15T05:27:57;95640.00;;;9.43;100.00
57606;BME280;43430;48.204;11.556;2023-05-15T05:30:22;95639.53;;;9.46;100.00
57606;BME280;43430;48.204;11.556;2023-05-15T05:32:48;95644.94;;;9.51;100.00
57606;BME280;43430;48.204;11.556;2023-05-15T05:35:13;95648.34;;;9.40;100.00
57606;BME280;43430;48.204;11.556;2023-05-15T05:37:38;95655.31;;;9.46;100.00
57606;BME280;43430;48.204;11.556;2023-05-15T05:40:04;95654.66;;;9.50;100.00
57606;BME280;43430;48.204;11.556;2023-05-15T05:42:33;95659.22;;;9.43;100.00
57606;BME280;43430;48.204;11.556;2023-05-15T05:44:58;95655.66;;;9.49;100.00
57606;BME280;43430;48.204;11.556;2023-05-15T05:47:24;95658.34;;;9.31;100.00
57606;BME280;43430;48.204;11.556;2023-05-15T05:49:49;95654.16;;;9.42;100.00
57606;BME280;43430;48.204;11.556;2023-05-15T05:52:14;95652.47;;;9.47;100.00
57606;BME280;43430;48.204;11.556;2023-05-15T05:54:41;95660.06;;;9.56;100.00
57606;BME280;43430;48.204;11.556;2023-05-15T05:57:08;95657.28;;;9.50;100.00
57606;BME280;43430;48.204;11.556;2023-05-15T05:59:34;95652.47;;;9.47;100.00
57606;BME280;43430;48.204;11.556;2023-05-15T06:02:00;95657.78;;;9.29;100.00
57606;BME280;43430;48.204;11.556;2023-05-15T06:04:25;95660.09;;;9.37;100.00
57606;BME280;43430;48.204;11.556;2023-05-15T06:06:51;95654.31;;;9.47;100.00
57606;BME280;43430;48.204;11.556;2023-05-15T06:09:16;95654.06;;;9.48;100.00
57606;BME280;43430;48.204;11.556;2023-05-15T06:11:42;95656.25;;;9.51;100.00
57606;BME280;43430;48.204;11.556;2023-05-15T06:14:07;95663.63;;;9.61;100.00
57606;BME280;43430;48.204;11.556;2023-05-15T06:16:33;95652.22;;;9.67;100.00
57606;BME280;43430;48.204;11.556;2023-05-15T06:18:59;95652.50;;;9.59;100.00
57606;BME280;43430;48.204;11.556;2023-05-15T06:21:24;95653.13;;;9.73;100.00
57606;BME280;43430;48.204;11.556;2023-05-15T06:23:50;95649.41;;;9.81;100.00
57606;BME280;43430;48.204;11.556;2023-05-15T06:26:15;95649.25;;;9.75;100.00
57606;BME280;43430;48.204;11.556;2023-05-15T06:28:41;95649.78;;;9.96;100.00
57606;BME280;43430;48.204;11.556;2023-05-15T06:31:06;95639.38;;;10.13;100.00
57606;BME280;43430;48.204;11.556;2023-05-15T06:33:31;95642.94;;;10.18;100.00
57606;BME280;43430;48.204;11.556;2023-05-15T06:35:57;95644.47;;;10.26;100.00
57606;BME280;43430;48.204;11.556;2023-05-15T06:38:22;95634.41;;;10.35;100.00
57606;BME280;43430;48.204;11.556;2023-05-15T06:40:47;95639.81;;;10.40;100.00
57606;BME280;43430;48.204;11.556;2023-05-15T06:43:13;95645.81;;;10.17;100.00
57606;BME280;43430;48.204;11.556;2023-05-15T06:45:38;95645.09;;;10.10;100.00
57606;BME280;43430;48.204;11.556;2023-05-15T06:48:04;95642.03;;;10.13;100.00
57606;BME280;43430;48.204;11.556;2023-05-15T06:50:29;95651.69;;;10.31;100.00
57606;BME280;43430;48.204;11.556;2023-05-15T06:52:54;95649.81;;;10.19;100.00
57606;BME280;43430;48.204;11.556;2023-05-15T06:55:20;95644.72;;;10.36;100.00
57606;BME280;43430;48.204;11.556;2023-05-15T06:57:45;95640.69;;;10.45;100.00
57606;BME280;43430;48.204;11.556;2023-05-15T07:00:11;95644.38;;;10.56;100.00
57606;BME280;43430;48.204;11.556;2023-05-15T07:02:36;95644.38;;;10.68;100.00
57606;BME280;43430;48.204;11.556;2023-05-15T07:05:02;95638.31;;;10.67;100.00
57606;BME280;43430;48.204;11.556;2023-05-15T07:07:27;95639.34;;;10.55;100.00
57606;BME280;43430;48.204;11.556;2023-05-15T07:09:52;95633.84;;;10.68;100.00
57606;BME280;43430;48.204;11.556;2023-05-15T07:12:18;95628.66;;;10.85;100.00
57606;BME280;43430;48.204;11.556;2023-05-15T07:14:43;95623.59;;;10.83;100.00
57606;BME280;43430;48.204;11.556;2023-05-15T07:17:08;95625.91;;;10.91;100.00
57606;BME280;43430;48.204;11.556;2023-05-15T07:19:35;95625.66;;;10.93;100.00
57606;BME280;43430;48.204;11.556;2023-05-15T07:22:00;95617.22;;;11.20;100.00
57606;BME280;43430;48.204;11.556;2023-05-15T07:24:25;95615.88;;;11.46;100.00
57606;BME280;43430;48.204;11.556;2023-05-15T07:26:51;95610.31;;;11.59;100.00
57606;BME280;43430;48.204;11.556;2023-05-15T07:29:16;95592.31;;;11.84;100.00
57606;BME280;43430;48.204;11.556;2023-05-15T07:31:41;95586.06;;;11.91;100.00
57606;BME280;43430;48.204;11.556;2023-05-15T07:34:09;95574.09;;;11.71;100.00
57606;BME280;43430;48.204;11.556;2023-05-15T07:36:35;95581.84;;;11.61;100.00
57606;BME280;43430;48.204;11.556;2023-05-15T07:39:00;95583.69;;;11.60;100.00
57606;BME280;43430;48.204;11.556;2023-05-15T07:41:25;95589.75;;;11.61;100.00
57606;BME280;43430;48.204;11.556;2023-05-15T07:43:51;95600.13;;;11.51;100.00
57606;BME280;43430;48.204;11.556;2023-05-15T07:46:16;95591.75;;;11.54;100.00
57606;BME280;43430;48.204;11.556;2023-05-15T07:48:41;95600.09;;;11.79;100.00
57606;BME280;43430;48.204;11.556;2023-05-15T07:51:07;95587.56;;;11.86;100.00
57606;BME280;43430;48.204;11.556;2023-05-15T07:53:32;95582.06;;;12.05;100.00
57606;BME280;43430;48.204;11.556;2023-05-15T07:55:58;95580.06;;;12.29;100.00
57606;BME280;43430;48.204;11.556;2023-05-15T07:58:23;95566.69;;;12.35;100.00
57606;BME280;43430;48.204;11.556;2023-05-15T08:00:49;95569.25;;;12.14;100.00
57606;BME280;43430;48.204;11.556;2023-05-15T08:03:14;95565.38;;;12.21;100.00
57606;BME280;43430;48.204;11.556;2023-05-15T08:05:39;95565.00;;;12.29;100.00
57606;BME280;43430;48.204;11.556;2023-05-15T08:08:05;95563.63;;;11.93;100.00
57606;BME280;43430;48.204;11.556;2023-05-15T08:10:30;95573.09;;;12.06;100.00
57606;BME280;43430;48.204;11.556;2023-05-15T08:12:56;95565.53;;;12.31;100.00
57606;BME280;43430;48.204;11.556;2023-05-15T08:15:23;95562.56;;;12.45;100.00
57606;BME280;43430;48.204;11.556;2023-05-15T08:17:48;95567.94;;;12.50;100.00
57606;BME280;43430;48.204;11.556;2023-05-15T08:20:13;95560.28;;;12.70;100.00
57606;BME280;43430;48.204;11.556;2023-05-15T08:22:39;95547.81;;;12.49;100.00
57606;BME280;43430;48.204;11.556;2023-05-15T08:25:05;95548.72;;;12.98;100.00
57606;BME280;43430;48.204;11.556;2023-05-15T08:27:31;95541.78;;;13.19;100.00
57606;BME280;43430;48.204;11.556;2023-05-15T08:29:57;95534.97;;;12.79;100.00
57606;BME280;43430;48.204;11.556;2023-05-15T08:32:22;95542.13;;;12.57;100.00
57606;BME280;43430;48.204;11.556;2023-05-15T08:34:48;95542.47;;;12.44;100.00
57606;BME280;43430;48.204;11.556;2023-05-15T08:37:13;95553.97;;;12.54;100.00
57606;BME280;43430;48.204;11.556;2023-05-15T08:39:38;95552.97;;;12.77;100.00
57606;BME280;43430;48.204;11.556;2023-05-15T08:42:13;95548.63;;;12.93;100.00
57606;BME280;43430;48.204;11.556;2023-05-15T08:44:43;95549.81;;;13.02;100.00
57606;BME280;43430;48.204;11.556;2023-05-15T08:47:09;95534.34;;;12.72;100.00
57606;BME280;43430;48.204;11.556;2023-05-15T08:49:57;95534.00;;;12.64;100.00
57606;BME280;43430;48.204;11.556;2023-05-15T08:52:29;95535.09;;;12.68;100.00
57606;BME280;43430;48.204;11.556;2023-05-15T08:54:54;95532.09;;;12.81;100.00
57606;BME280;43430;48.204;11.556;2023-05-15T08:57:20;95523.19;;;13.14;100.00
57606;BME280;43430;48.204;11.556;2023-05-15T08:59:47;95522.53;;;13.24;100.00
57606;BME280;43430;48.204;11.556;2023-05-15T09:02:13;95528.41;;;13.26;100.00
57606;BME280;43430;48.204;11.556;2023-05-15T09:04:40;95516.66;;;13.44;100.00
57606;BME280;43430;48.204;11.556;2023-05-15T09:07:05;95516.75;;;13.27;100.00
57606;BME280;43430;48.204;11.556;2023-05-15T09:09:32;95514.47;;;13.36;100.00
57606;BME280;43430;48.204;11.556;2023-05-15T09:11:59;95517.41;;;13.66;100.00
57606;BME280;43430;48.204;11.556;2023-05-15T09:14:26;95498.16;;;13.81;100.00
57606;BME280;43430;48.204;11.556;2023-05-15T09:16:52;95494.59;;;14.02;100.00
57606;BME280;43430;48.204;11.556;2023-05-15T09:19:21;95489.06;;;14.09;100.00
57606;BME280;43430;48.204;11.556;2023-05-15T09:21:46;95484.19;;;13.91;100.00
57606;BME280;43430;48.204;11.556;2023-05-15T09:26:42;95469.25;;;13.80;100.00
57606;BME280;43430;48.204;11.556;2023-05-15T09:29:07;95469.47;;;14.10;100.00
57606;BME280;43430;48.204;11.556;2023-05-15T09:31:33;95463.72;;;14.23;100.00
57606;BME280;43430;48.204;11.556;2023-05-15T09:33:59;95456.53;;;14.24;100.00
57606;BME280;43430;48.204;11.556;2023-05-15T09:36:25;95458.34;;;14.13;100.00
57606;BME280;43430;48.204;11.556;2023-05-15T09:38:59;95456.88;;;14.38;100.00
57606;BME280;43430;48.204;11.556;2023-05-15T09:41:26;95456.19;;;14.05;100.00
57606;BME280;43430;48.204;11.556;2023-05-15T09:43:52;95458.50;;;14.44;100.00
57606;BME280;43430;48.204;11.556;2023-05-15T09:46:20;95457.00;;;14.53;100.00
57606;BME280;43430;48.204;11.556;2023-05-15T09:48:46;95460.03;;;14.35;100.00
57606;BME280;43430;48.204;11.556;2023-05-15T09:51:15;95464.59;;;13.97;100.00
57606;BME280;43430;48.204;11.556;2023-05-15T09:53:42;95471.25;;;13.62;100.00
57606;BME280;43430;48.204;11.556;2023-05-15T09:56:12;95480.63;;;13.43;100.00
57606;BME280;43430;48.204;11.556;2023-05-15T09:58:51;95488.72;;;13.31;100.00
57606;BME280;43430;48.204;11.556;2023-05-15T10:01:19;95502.53;;;13.38;100.00
57606;BME280;43430;48.204;11.556;2023-05-15T10:03:55;95508.09;;;13.37;100.00
57606;BME280;43430;48.204;11.556;2023-05-15T10:06:21;95500.66;;;13.34;100.00
57606;BME280;43430;48.204;11.556;2023-05-15T10:08:53;95484.31;;;13.42;100.00
57606;BME280;43430;48.204;11.556;2023-05-15T10:11:19;95478.97;;;13.69;100.00
57606;BME280;43430;48.204;11.556;2023-05-15T10:13:46;95473.53;;;13.86;100.00
57606;BME280;43430;48.204;11.556;2023-05-15T10:16:13;95472.72;;;13.80;100.00
57606;BME280;43430;48.204;11.556;2023-05-15T10:18:39;95468.38;;;14.06;100.00
57606;BME280;43430;48.204;11.556;2023-05-15T10:21:07;95464.28;;;14.31;100.00
57606;BME280;43430;48.204;11.556;2023-05-15T10:23:34;95447.38;;;14.47;100.00
57606;BME280;43430;48.204;11.556;2023-05-15T10:26:03;95438.22;;;14.70;100.00
57606;BME280;43430;48.204;11.556;2023-05-15T10:28:30;95424.47;;;14.83;100.00
57606;BME280;43430;48.204;11.556;2023-05-15T10:31:00;95420.50;;;14.91;100.00
57606;BME280;43430;48.204;11.556;2023-05-15T10:33:28;95419.41;;;14.77;100.00
57606;BME280;43430;48.204;11.556;2023-05-15T10:35:55;95426.41;;;14.40;100.00
57606;BME280;43430;48.204;11.556;2023-05-15T10:38:21;95438.31;;;14.38;100.00
57606;BME280;43430;48.204;11.556;2023-05-15T10:40:47;95430.06;;;14.29;100.00
57606;BME280;43430;48.204;11.556;2023-05-15T10:43:13;95426.06;;;14.27;100.00
57606;BME280;43430;48.204;11.556;2023-05-15T10:45:40;95425.59;;;14.40;100.00
57606;BME280;43430;48.204;11.556;2023-05-15T10:48:06;95432.25;;;14.47;100.00
57606;BME280;43430;48.204;11.556;2023-05-15T10:50:35;95423.91;;;14.18;100.00
57606;BME280;43430;48.204;11.556;2023-05-15T10:53:01;95431.69;;;14.35;100.00
57606;BME280;43430;48.204;11.556;2023-05-15T10:55:26;95404.22;;;14.57;100.00
57606;BME280;43430;48.204;11.556;2023-05-15T10:57:51;95393.34;;;14.63;100.00
57606;BME280;43430;48.204;11.556;2023-05-15T11:02:47;95385.91;;;14.65;100.00
57606;BME280;43430;48.204;11.556;2023-05-15T11:05:13;95396.59;;;14.91;100.00
57606;BME280;43430;48.204;11.556;2023-05-15T11:07:38;95383.84;;;14.88;100.00
57606;BME280;43430;48.204;11.556;2023-05-15T11:12:58;95384.22;;;14.44;100.00
57606;BME280;43430;48.204;11.556;2023-05-15T11:15:24;95386.88;;;14.44;100.00
57606;BME280;43430;48.204;11.556;2023-05-15T11:18:03;95387.00;;;14.69;100.00
57606;BME280;43430;48.204;11.556;2023-05-15T11:23:20;95374.56;;;14.90;100.00
57606;BME280;43430;48.204;11.556;2023-05-15T11:25:51;95370.59;;;15.34;100.00
57606;BME280;43430;48.204;11.556;2023-05-15T11:28:21;95359.97;;;15.49;100.00
57606;BME280;43430;48.204;11.556;2023-05-15T11:30:50;95357.31;;;15.44;100.00
57606;BME280;43430;48.204;11.556;2023-05-15T11:33:16;95359.44;;;15.27;100.00
57606;BME280;43430;48.204;11.556;2023-05-15T11:35:46;95364.78;;;15.32;100.00
57606;BME280;43430;48.204;11.556;2023-05-15T11:38:14;95363.69;;;15.43;100.00
57606;BME280;43430;48.204;11.556;2023-05-15T11:43:30;95370.06;;;15.37;100.00
57606;BME280;43430;48.204;11.556;2023-05-15T11:46:07;95373.78;;;15.20;100.00
57606;BME280;43430;48.204;11.556;2023-05-15T11:48:36;95372.19;;;15.09;100.00
57606;BME280;43430;48.204;11.556;2023-05-15T11:51:04;95378.84;;;15.27;100.00
57606;BME280;43430;48.204;11.556;2023-05-15T11:53:31;95365.81;;;14.80;100.00
57606;BME280;43430;48.204;11.556;2023-05-15T11:55:56;95374.91;;;13.73;100.00
57606;BME280;43430;48.204;11.556;2023-05-15T11:58:23;95400.69;;;13.51;100.00
57606;BME280;43430;48.204;11.556;2023-05-15T12:00:50;95420.66;;;13.32;100.00
57606;BME280;43430;48.204;11.556;2023-05-15T12:03:30;95426.50;;;13.28;100.00
57606;BME280;43430;48.204;11.556;2023-05-15T12:05:56;95441.50;;;13.55;100.00
57606;BME280;43430;48.204;11.556;2023-05-15T12:08:21;95448.25;;;13.68;100.00
57606;BME280;43430;48.204;11.556;2023-05-15T12:10:47;95458.63;;;13.74;100.00
57606;BME280;43430;48.204;11.556;2023-05-15T12:13:14;95437.56;;;13.58;100.00
57606;BME280;43430;48.204;11.556;2023-05-15T12:15:41;95431.69;;;13.88;100.00
57606;BME280;43430;48.204;11.556;2023-05-15T12:18:07;95429.91;;;14.04;100.00
57606;BME280;43430;48.204;11.556;2023-05-15T12:20:34;95428.16;;;14.24;100.00
57606;BME280;43430;48.204;11.556;2023-05-15T12:23:06;95424.91;;;14.07;100.00
57606;BME280;43430;48.204;11.556;2023-05-15T12:25:32;95432.72;;;14.34;100.00
57606;BME280;43430;48.204;11.556;2023-05-15T12:28:00;95433.94;;;14.64;100.00
57606;BME280;43430;48.204;11.556;2023-05-15T12:30:32;95421.75;;;14.68;100.00
57606;BME280;43430;48.204;11.556;2023-05-15T12:33:01;95420.16;;;14.67;100.00
57606;BME280;43430;48.204;11.556;2023-05-15T12:35:27;95408.25;;;14.80;100.00
57606;BME280;43430;48.204;11.556;2023-05-15T12:37:52;95413.34;;;15.07;100.00
57606;BME280;43430;48.204;11.556;2023-05-15T12:40:19;95411.50;;;15.12;100.00
57606;BME280;43430;48.204;11.556;2023-05-15T12:42:45;95419.47;;;15.12;100.00
57606;BME280;43430;48.204;11.556;2023-05-15T12:45:15;95411.47;;;15.02;100.00
57606;BME280;43430;48.204;11.556;2023-05-15T12:47:42;95406.13;;;14.82;100.00
57606;BME280;43430;48.204;11.556;2023-05-15T12:50:15;95413.13;;;14.35;100.00
57606;BME280;43430;48.204;11.556;2023-05-15T12:52:50;95439.56;;;13.77;100.00
57606;BME280;43430;48.204;11.556;2023-05-15T12:55:20;95489.81;;;13.08;100.00
57606;BME280;43430;48.204;11.556;2023-05-15T12:57:46;95510.25;;;12.47;100.00
57606;BME280;43430;48.204;11.556;2023-05-15T13:00:12;95525.38;;;12.13;100.00
57606;BME280;43430;48.204;11.556;2023-05-15T13:02:42;95540.53;;;11.72;100.00
57606;BME280;43430;48.204;11.556;2023-05-15T13:05:07;95544.59;;;11.46;100.00
57606;BME280;43430;48.204;11.556;2023-05-15T13:07:33;95550.72;;;11.34;100.00